createdAt,value
2019-01-21T00:02:14.945Z,-1.78
2019-01-21T00:04:40.852Z,-1.81
2019-01-21T00:07:06.725Z,-1.79
2019-01-21T00:09:32.649Z,-1.75
2019-01-21T00:11:58.529Z,-1.73
2019-01-21T00:14:24.439Z,-1.79
2019-01-21T00:16:50.363Z,-1.80
2019-01-21T00:19:16.347Z,-1.84
2019-01-21T00:21:42.250Z,-1.91
2019-01-21T00:24:08.181Z,-1.95
2019-01-21T00:26:34.077Z,-1.95
2019-01-21T00:28:59.952Z,-1.93
2019-01-21T00:31:25.846Z,-1.97
2019-01-21T00:33:51.716Z,-1.96
2019-01-21T00:36:17.659Z,-2.01
2019-01-21T00:38:43.544Z,-2.02
2019-01-21T00:41:09.422Z,-2.01
2019-01-21T00:43:35.868Z,-2.05
2019-01-21T00:46:01.742Z,-2.02
2019-01-21T00:48:27.678Z,-2.06
2019-01-21T00:50:53.596Z,-2.16
2019-01-21T00:53:19.482Z,-2.25
2019-01-21T00:55:46.218Z,-2.23
2019-01-21T00:58:12.085Z,-2.16
2019-01-21T01:00:38.598Z,-2.10
2019-01-21T01:03:04.505Z,-2.10
2019-01-21T01:05:30.483Z,-2.08
2019-01-21T01:07:56.410Z,-2.10
2019-01-21T01:10:22.306Z,-2.14
2019-01-21T01:12:48.175Z,-2.17
2019-01-21T01:15:14.121Z,-2.23
2019-01-21T01:17:44.987Z,-2.24
2019-01-21T01:20:16.037Z,-2.30
2019-01-21T01:22:41.917Z,-2.24
2019-01-21T01:25:08.139Z,-2.27
2019-01-21T01:27:34.011Z,-2.30
2019-01-21T01:29:59.957Z,-2.35
2019-01-21T01:32:25.869Z,-2.26
2019-01-21T01:34:51.739Z,-2.24
2019-01-21T01:37:17.675Z,-2.30
2019-01-21T01:39:43.548Z,-2.32
2019-01-21T01:42:09.455Z,-2.34
2019-01-21T01:44:35.326Z,-2.39
2019-01-21T01:47:01.243Z,-2.43
2019-01-21T01:49:27.148Z,-2.45
2019-01-21T01:51:53.179Z,-2.48
2019-01-21T01:54:19.155Z,-2.47
2019-01-21T01:56:45.068Z,-2.41
2019-01-21T01:59:11.076Z,-2.50
2019-01-21T02:01:36.966Z,-2.48
2019-01-21T02:04:03.042Z,-2.53
2019-01-21T02:06:28.910Z,-2.49
2019-01-21T02:08:55.116Z,-2.41
2019-01-21T02:11:20.990Z,-2.39
2019-01-21T02:13:46.894Z,-2.45
2019-01-21T02:16:12.905Z,-2.51
2019-01-21T02:18:38.969Z,-2.50
2019-01-21T02:21:04.827Z,-2.50
2019-01-21T02:23:35.241Z,-2.42
2019-01-21T02:26:01.554Z,-2.44
2019-01-21T02:28:34.195Z,-2.41
2019-01-21T02:31:20.591Z,-2.37
2019-01-21T02:34:13.009Z,-2.37
2019-01-21T02:37:11.828Z,-2.50
2019-01-21T02:39:47.443Z,-2.50
2019-01-21T02:42:17.147Z,-2.55
2019-01-21T02:44:49.596Z,-2.66
2019-01-21T02:47:22.320Z,-2.63
2019-01-21T02:50:10.035Z,-2.64
2019-01-21T02:52:48.503Z,-2.64
2019-01-21T02:55:33.553Z,-2.66
2019-01-21T02:58:20.483Z,-2.65
2019-01-21T03:01:02.505Z,-2.71
2019-01-21T03:03:38.203Z,-2.65
2019-01-21T03:06:13.637Z,-2.76
2019-01-21T03:08:59.819Z,-2.80
2019-01-21T03:11:44.594Z,-2.78
2019-01-21T03:14:14.290Z,-2.80
2019-01-21T03:16:46.834Z,-2.75
2019-01-21T03:19:22.880Z,-2.86
2019-01-21T03:22:28.303Z,-2.80
2019-01-21T03:25:14.421Z,-2.86
2019-01-21T03:28:13.240Z,-2.94
2019-01-21T03:30:51.833Z,-2.98
2019-01-21T03:33:36.719Z,-2.96
2019-01-21T03:36:06.430Z,-2.99
2019-01-21T03:38:36.104Z,-2.95
2019-01-21T03:41:06.215Z,-3.03
2019-01-21T03:43:54.008Z,-3.08
2019-01-21T03:46:59.211Z,-3.05
2019-01-21T03:49:50.190Z,-3.02
2019-01-21T03:52:42.470Z,-3.12
2019-01-21T03:55:11.491Z,-3.03
2019-01-21T03:57:41.207Z,-3.04
2019-01-21T04:00:26.215Z,-3.01
2019-01-21T04:03:15.238Z,-3.01
2019-01-21T04:05:56.869Z,-3.10
2019-01-21T04:08:46.644Z,-3.14
2019-01-21T04:11:22.474Z,-3.13
2019-01-21T04:14:04.553Z,-3.14
2019-01-21T04:16:34.310Z,-3.19
2019-01-21T04:19:18.626Z,-3.15
2019-01-21T04:21:57.243Z,-3.12
2019-01-21T04:24:27.020Z,-3.08
2019-01-21T04:26:59.506Z,-3.12
2019-01-21T04:29:49.143Z,-3.22
2019-01-21T04:32:28.012Z,-3.20
2019-01-21T04:35:12.723Z,-3.27
2019-01-21T04:37:48.594Z,-3.34
2019-01-21T04:40:21.041Z,-3.40
2019-01-21T04:43:10.190Z,-3.43
2019-01-21T04:45:43.142Z,-3.34
2019-01-21T04:48:33.019Z,-3.33
2019-01-21T04:51:24.101Z,-3.36
2019-01-21T04:53:56.515Z,-3.36
2019-01-21T04:56:34.567Z,-3.30
2019-01-21T04:59:26.942Z,-3.26
2019-01-21T05:02:02.219Z,-3.29
2019-01-21T05:04:34.947Z,-3.27
2019-01-21T05:07:24.549Z,-3.30
2019-01-21T05:09:59.876Z,-3.31
2019-01-21T05:12:38.884Z,-3.35
2019-01-21T05:15:26.732Z,-3.37
2019-01-21T05:18:05.496Z,-3.34
2019-01-21T05:20:47.399Z,-3.25
2019-01-21T05:23:26.291Z,-3.22
2019-01-21T05:26:01.951Z,-3.19
2019-01-21T05:28:46.794Z,-3.21
2019-01-21T05:31:37.681Z,-3.39
2019-01-21T05:34:13.337Z,-3.25
2019-01-21T05:36:55.286Z,-3.19
2019-01-21T05:39:40.351Z,-3.21
2019-01-21T05:42:28.152Z,-3.26
2019-01-21T05:45:13.155Z,-3.28
2019-01-21T05:47:45.681Z,-3.26
2019-01-21T05:50:21.369Z,-3.23
2019-01-21T05:52:57.101Z,-3.22
2019-01-21T05:55:45.336Z,-3.26
2019-01-21T05:58:46.392Z,-3.37
2019-01-21T06:01:28.428Z,-3.42
2019-01-21T06:04:04.138Z,-3.36
2019-01-21T06:06:54.019Z,-3.36
2019-01-21T06:09:26.727Z,-3.37
2019-01-21T06:12:17.676Z,-3.36
2019-01-21T06:14:58.878Z,-3.33
2019-01-21T06:17:31.164Z,-3.37
2019-01-21T06:20:30.030Z,-3.36
2019-01-21T06:23:05.197Z,-3.34
2019-01-21T06:25:56.475Z,-3.31
2019-01-21T06:28:35.206Z,-3.29
2019-01-21T06:31:10.994Z,-3.35
2019-01-21T06:33:47.020Z,-3.40
2019-01-21T06:36:25.793Z,-3.43
2019-01-21T06:39:10.467Z,-3.41
2019-01-21T06:41:46.017Z,-3.43
2019-01-21T06:44:39.725Z,-3.42
2019-01-21T06:47:18.428Z,-3.48
2019-01-21T06:50:06.231Z,-3.46
2019-01-21T06:53:01.661Z,-3.47
2019-01-21T06:55:34.054Z,-3.54
2019-01-21T06:58:03.815Z,-3.52
2019-01-21T07:00:36.370Z,-3.53
2019-01-21T07:03:12.149Z,-3.49
2019-01-21T07:05:56.727Z,-3.50
2019-01-21T07:08:47.451Z,-3.53
2019-01-21T07:11:38.429Z,-3.55
2019-01-21T07:14:28.837Z,-3.57
2019-01-21T07:17:07.745Z,-3.81
2019-01-21T07:19:59.038Z,-3.64
2019-01-21T07:22:37.847Z,-3.59
2019-01-21T07:25:07.583Z,-3.49
2019-01-21T07:27:52.573Z,-3.48
2019-01-21T07:30:39.149Z,-3.43
2019-01-21T07:33:23.681Z,-3.41
2019-01-21T07:36:02.237Z,-3.41
2019-01-21T07:38:35.171Z,-3.44
2019-01-21T07:41:16.486Z,-3.42
2019-01-21T07:43:58.108Z,-3.34
2019-01-21T07:46:52.040Z,-3.30
2019-01-21T07:49:49.457Z,-3.28
2019-01-21T07:52:35.973Z,-3.22
2019-01-21T07:55:17.911Z,-3.21
2019-01-21T07:58:04.390Z,-3.19
2019-01-21T08:00:49.544Z,-3.13
2019-01-21T08:03:34.490Z,-3.07
2019-01-21T08:06:24.113Z,-3.07
2019-01-21T08:09:06.114Z,-2.99
2019-01-21T08:11:53.953Z,-2.88
2019-01-21T08:14:23.684Z,-2.85
2019-01-21T08:17:14.052Z,-2.77
2019-01-21T08:19:43.858Z,-2.79
2019-01-21T08:22:25.930Z,-2.82
2019-01-21T08:25:04.235Z,-2.71
2019-01-21T08:27:52.028Z,-2.58
2019-01-21T08:30:27.271Z,-2.50
2019-01-21T08:33:17.093Z,-2.47
2019-01-21T08:35:58.353Z,-2.37
2019-01-21T08:38:31.421Z,-2.33
2019-01-21T08:41:24.211Z,-2.21
2019-01-21T08:44:13.311Z,-2.09
2019-01-21T08:46:46.047Z,-2.00
2019-01-21T08:49:21.947Z,-1.94
2019-01-21T08:52:12.415Z,-1.83
2019-01-21T08:54:47.883Z,-1.82
2019-01-21T08:57:26.625Z,-1.62
2019-01-21T08:59:59.078Z,-1.43
2019-01-21T09:02:31.818Z,-1.31
2019-01-21T09:05:10.361Z,-1.17
2019-01-21T09:07:45.951Z,-1.07
2019-01-21T09:10:44.817Z,-0.95
2019-01-21T09:13:20.336Z,-1.04
2019-01-21T09:16:13.875Z,-0.65
2019-01-21T09:18:46.192Z,-0.83
2019-01-21T09:21:21.704Z,-0.49
2019-01-21T09:24:11.328Z,-0.60
2019-01-21T09:26:46.629Z,-0.44
2019-01-21T09:29:25.330Z,-0.25
2019-01-21T09:32:14.516Z,-0.05
2019-01-21T09:34:50.101Z,0.03
2019-01-21T09:37:22.960Z,0.09
2019-01-21T09:39:55.843Z,0.00
2019-01-21T09:42:28.279Z,0.25
2019-01-21T09:45:06.627Z,0.11
2019-01-21T09:47:32.290Z,0.49
2019-01-21T09:49:58.158Z,0.37
2019-01-21T09:52:24.074Z,0.31
2019-01-21T09:54:50.365Z,0.41
2019-01-21T09:57:16.590Z,0.50
2019-01-21T09:59:42.604Z,0.68
2019-01-21T10:02:08.529Z,0.66
2019-01-21T10:04:38.057Z,0.66
2019-01-21T10:07:22.833Z,0.74
2019-01-21T10:09:55.752Z,0.96
2019-01-21T10:12:54.687Z,0.74
2019-01-21T10:15:27.089Z,0.87
2019-01-21T10:18:06.118Z,1.04
2019-01-21T10:20:56.516Z,1.03
2019-01-21T10:23:44.077Z,1.25
2019-01-21T10:26:22.987Z,1.19
2019-01-21T10:28:55.714Z,1.34
2019-01-21T10:31:42.533Z,1.40
2019-01-21T10:34:15.025Z,1.50
2019-01-21T10:37:10.739Z,1.24
2019-01-21T10:39:52.000Z,1.55
2019-01-21T10:42:42.646Z,1.66
2019-01-21T10:45:33.908Z,1.69
2019-01-21T10:48:15.018Z,1.51
2019-01-21T10:51:16.694Z,1.80
2019-01-21T10:54:01.001Z,1.98
2019-01-21T10:56:39.572Z,2.13
2019-01-21T10:59:35.394Z,2.40
2019-01-21T11:02:11.150Z,2.00
2019-01-21T11:05:00.847Z,2.28
2019-01-21T11:07:39.778Z,2.27
2019-01-21T11:10:27.364Z,2.46
2019-01-21T11:12:59.978Z,2.23
2019-01-21T11:15:35.741Z,2.39
2019-01-21T11:18:17.519Z,2.45
2019-01-21T11:21:04.923Z,2.61
2019-01-21T11:23:54.657Z,2.39
2019-01-21T11:26:47.283Z,2.34
2019-01-21T11:29:19.997Z,2.38
2019-01-21T11:32:01.557Z,2.63
2019-01-21T11:34:46.755Z,2.84
2019-01-21T11:37:16.605Z,2.72
2019-01-21T11:39:49.285Z,2.81
2019-01-21T11:42:24.514Z,2.78
2019-01-21T11:45:20.437Z,2.93
2019-01-21T11:47:50.179Z,2.91
2019-01-21T11:50:31.610Z,2.96
2019-01-21T11:53:10.337Z,2.95
2019-01-21T11:55:42.818Z,2.88
2019-01-21T11:58:34.127Z,2.98
2019-01-21T12:01:09.749Z,3.17
2019-01-21T12:03:58.183Z,3.10
2019-01-21T12:06:30.702Z,3.15
2019-01-21T12:09:06.560Z,3.23
2019-01-21T12:11:42.352Z,3.23
2019-01-21T12:14:20.990Z,3.55
2019-01-21T12:16:59.722Z,3.54
2019-01-21T12:20:05.636Z,3.44
2019-01-21T12:22:50.172Z,3.75
2019-01-21T12:25:25.658Z,3.70
2019-01-21T12:27:58.106Z,3.92
2019-01-21T12:30:27.846Z,4.08
2019-01-21T12:33:00.398Z,4.08
2019-01-21T12:35:30.128Z,4.04
2019-01-21T12:38:22.568Z,3.95
2019-01-21T12:41:13.604Z,3.97
2019-01-21T12:43:49.110Z,3.80
2019-01-21T12:46:21.796Z,3.87
2019-01-21T12:49:02.934Z,4.08
2019-01-21T12:51:38.777Z,4.04
2019-01-21T12:54:11.496Z,4.25
2019-01-21T12:57:00.432Z,3.96
2019-01-21T12:59:42.665Z,4.15
2019-01-21T13:02:12.397Z,4.14
2019-01-21T13:04:42.105Z,4.15
2019-01-21T13:07:23.904Z,4.22
2019-01-21T13:09:59.591Z,4.37
2019-01-21T13:12:38.181Z,4.32
2019-01-21T13:15:10.863Z,4.65
2019-01-21T13:17:40.615Z,4.53
2019-01-21T13:20:30.543Z,4.54
2019-01-21T13:23:03.303Z,4.71
2019-01-21T13:25:38.961Z,4.27
2019-01-21T13:28:14.178Z,4.37
2019-01-21T13:31:03.722Z,4.27
2019-01-21T13:34:07.332Z,4.40
2019-01-21T13:37:12.157Z,4.46
2019-01-21T13:39:54.177Z,4.40
2019-01-21T13:42:23.917Z,4.24
2019-01-21T13:45:14.154Z,4.38
2019-01-21T13:47:58.334Z,4.23
2019-01-21T13:50:37.300Z,4.44
2019-01-21T13:53:14.474Z,4.55
2019-01-21T13:55:59.000Z,4.45
2019-01-21T13:58:45.036Z,4.34
2019-01-21T14:01:32.915Z,4.46
2019-01-21T14:04:31.792Z,4.30
2019-01-21T14:07:04.276Z,4.57
2019-01-21T14:09:54.822Z,4.33
2019-01-21T14:12:34.011Z,4.22
2019-01-21T14:15:24.586Z,4.26
2019-01-21T14:17:54.316Z,4.43
2019-01-21T14:20:24.003Z,4.40
2019-01-21T14:22:59.925Z,4.42
2019-01-21T14:25:46.171Z,4.19
2019-01-21T14:28:43.193Z,4.23
2019-01-21T14:31:21.893Z,4.30
2019-01-21T14:33:51.623Z,4.33
2019-01-21T14:36:43.230Z,4.25
2019-01-21T14:39:22.105Z,4.16
2019-01-21T14:42:08.521Z,4.18
2019-01-21T14:44:47.031Z,4.23
2019-01-21T14:47:28.797Z,4.08
2019-01-21T14:50:16.371Z,3.91
2019-01-21T14:52:54.672Z,3.92
2019-01-21T14:55:27.191Z,3.86
2019-01-21T14:58:15.338Z,3.74
2019-01-21T15:00:53.781Z,3.83
2019-01-21T15:03:26.482Z,3.74
2019-01-21T15:06:08.259Z,3.94
2019-01-21T15:08:37.994Z,4.00
2019-01-21T15:11:25.884Z,4.00
2019-01-21T15:16:41.571Z,3.95
2019-01-21T15:19:14.291Z,3.86
2019-01-21T15:21:44.243Z,3.72
2019-01-21T15:24:13.957Z,3.69
2019-01-21T15:26:52.847Z,3.69
2019-01-21T15:29:31.381Z,3.72
2019-01-21T15:32:01.110Z,3.64
2019-01-21T15:34:33.892Z,3.65
2019-01-21T15:37:06.753Z,3.43
2019-01-21T15:39:53.437Z,3.44
2019-01-21T15:42:41.377Z,3.55
2019-01-21T15:45:14.134Z,3.45
2019-01-21T15:48:02.055Z,3.37
2019-01-21T15:50:37.898Z,3.44
2019-01-21T15:53:16.187Z,3.38
2019-01-21T15:55:57.543Z,3.40
2019-01-21T15:58:39.545Z,3.49
2019-01-21T16:01:20.906Z,3.44
2019-01-21T16:03:50.609Z,3.34
2019-01-21T16:06:38.395Z,3.26
2019-01-21T16:09:14.111Z,3.17
2019-01-21T16:11:56.417Z,3.18
2019-01-21T16:14:26.187Z,3.23
2019-01-21T16:17:08.113Z,3.04
2019-01-21T16:19:34.953Z,3.06
2019-01-21T16:22:07.658Z,3.09
2019-01-21T16:24:46.228Z,2.78
2019-01-21T16:27:25.192Z,2.81
2019-01-21T16:29:57.807Z,2.87
2019-01-21T16:32:25.528Z,2.91
2019-01-21T16:34:58.378Z,2.95
2019-01-21T16:37:36.991Z,2.91
2019-01-21T16:40:21.502Z,3.00
2019-01-21T16:42:47.468Z,2.76
2019-01-21T16:45:13.460Z,2.85
2019-01-21T16:47:39.370Z,2.91
2019-01-21T16:50:06.301Z,2.73
2019-01-21T16:52:32.269Z,2.80
2019-01-21T16:54:58.142Z,2.50
2019-01-21T16:57:24.185Z,2.61
2019-01-21T16:59:50.101Z,2.73
2019-01-21T17:02:16.045Z,2.65
2019-01-21T17:04:42.119Z,2.62
2019-01-21T17:07:08.157Z,2.60
2019-01-21T17:09:34.096Z,2.56
2019-01-21T17:11:59.989Z,2.50
2019-01-21T17:14:25.930Z,2.51
2019-01-21T17:16:51.978Z,2.42
2019-01-21T17:19:17.943Z,2.31
2019-01-21T17:21:43.974Z,2.15
2019-01-21T17:24:10.010Z,2.30
2019-01-21T17:26:35.943Z,2.12
2019-01-21T17:29:01.910Z,2.05
2019-01-21T17:31:27.810Z,1.98
2019-01-21T17:33:53.841Z,2.27
2019-01-21T17:36:19.835Z,2.11
2019-01-21T17:38:45.865Z,2.08
2019-01-21T17:41:11.894Z,2.02
2019-01-21T17:43:37.803Z,1.97
2019-01-21T17:46:03.692Z,1.83
2019-01-21T17:48:29.742Z,2.06
2019-01-21T17:50:55.633Z,2.16
2019-01-21T17:53:21.572Z,2.10
2019-01-21T17:55:47.630Z,2.23
2019-01-21T17:58:13.502Z,1.95
2019-01-21T18:00:39.578Z,1.92
2019-01-21T18:03:05.563Z,1.81
2019-01-21T18:05:31.470Z,1.90
2019-01-21T18:07:57.382Z,1.94
2019-01-21T18:10:23.270Z,1.76
2019-01-21T18:12:49.823Z,1.93
2019-01-21T18:15:15.858Z,1.96
2019-01-21T18:17:41.864Z,1.92
2019-01-21T18:20:13.863Z,2.15
2019-01-21T18:22:39.839Z,1.96
2019-01-21T18:25:07.718Z,2.20
2019-01-21T18:27:33.637Z,2.10
2019-01-21T18:29:59.570Z,2.08
2019-01-21T18:32:25.449Z,1.97
2019-01-21T18:34:51.462Z,2.30
2019-01-21T18:37:17.364Z,2.25
2019-01-21T18:39:43.687Z,2.24
2019-01-21T18:42:09.561Z,2.00
2019-01-21T18:44:35.603Z,2.23
2019-01-21T18:47:01.589Z,2.39
2019-01-21T18:49:27.511Z,2.19
2019-01-21T18:51:53.389Z,2.14
2019-01-21T18:54:19.375Z,2.33
2019-01-21T18:56:45.256Z,2.28
2019-01-21T18:59:11.135Z,2.19
2019-01-21T19:01:37.166Z,2.18
2019-01-21T19:04:03.051Z,1.85
2019-01-21T19:06:29.020Z,2.08
2019-01-21T19:08:54.915Z,2.22
2019-01-21T19:11:20.838Z,2.28
2019-01-21T19:13:46.717Z,2.09
2019-01-21T19:16:12.667Z,1.95
2019-01-21T19:18:38.608Z,1.95
2019-01-21T19:21:04.579Z,2.05
2019-01-21T19:23:30.478Z,2.12
2019-01-21T19:25:56.384Z,2.26
2019-01-21T19:28:22.278Z,2.30
2019-01-21T19:30:48.186Z,2.28
2019-01-21T19:33:14.104Z,2.18
2019-01-21T19:35:40.002Z,2.32
2019-01-21T19:38:05.926Z,2.11
2019-01-21T19:40:32.244Z,2.48
2019-01-21T19:42:58.241Z,2.45
2019-01-21T19:45:24.192Z,2.60
2019-01-21T19:47:50.085Z,2.68
2019-01-21T19:50:20.954Z,2.54
2019-01-21T19:52:46.849Z,2.60
2019-01-21T19:55:22.375Z,2.71
2019-01-21T19:57:48.265Z,2.68
2019-01-21T20:00:19.304Z,2.74
2019-01-21T20:02:45.221Z,2.50
2019-01-21T20:05:11.243Z,2.60
2019-01-21T20:07:37.245Z,2.58
2019-01-21T20:10:06.991Z,2.71
2019-01-21T20:12:32.910Z,2.68
2019-01-21T20:14:58.840Z,2.77
2019-01-21T20:17:24.833Z,2.89
2019-01-21T20:19:50.920Z,2.94
2019-01-21T20:22:16.853Z,2.94
2019-01-21T20:24:42.729Z,2.83
2019-01-21T20:27:08.653Z,2.81
2019-01-21T20:29:34.562Z,2.83
2019-01-21T20:32:00.473Z,2.83
2019-01-21T20:34:26.350Z,2.64
2019-01-21T20:36:52.275Z,2.66
2019-01-21T20:39:18.260Z,2.90
2019-01-21T20:41:44.196Z,2.80
2019-01-21T20:44:10.111Z,2.69
2019-01-21T20:46:36.017Z,2.66
2019-01-21T20:49:02.053Z,2.58
2019-01-21T20:51:27.954Z,2.84
2019-01-21T20:53:53.906Z,2.93
2019-01-21T20:56:19.842Z,2.62
2019-01-21T20:58:45.958Z,2.44
2019-01-21T21:01:13.305Z,2.64
2019-01-21T21:03:39.354Z,2.73
2019-01-21T21:06:05.275Z,2.78
2019-01-21T21:08:31.306Z,2.88
2019-01-21T21:10:57.425Z,2.93
2019-01-21T21:13:23.338Z,3.06
2019-01-21T21:15:49.263Z,3.03
2019-01-21T21:18:15.156Z,3.07
2019-01-21T21:20:41.088Z,3.11
2019-01-21T21:23:06.954Z,3.18
2019-01-21T21:25:32.878Z,3.26
2019-01-21T21:27:58.783Z,3.21
2019-01-21T21:30:27.681Z,3.02
2019-01-21T21:32:53.594Z,2.99
2019-01-21T21:35:19.775Z,3.18
2019-01-21T21:37:45.720Z,3.15
2019-01-21T21:40:14.011Z,3.13
2019-01-21T21:42:40.112Z,3.28
2019-01-21T21:45:08.895Z,3.36
2019-01-21T21:47:34.811Z,3.02
2019-01-21T21:50:00.689Z,3.20
2019-01-21T21:52:27.908Z,3.24
2019-01-21T21:54:53.988Z,3.30
2019-01-21T21:57:19.932Z,3.21
2019-01-21T21:59:45.827Z,3.28
2019-01-21T22:02:11.733Z,3.39
2019-01-21T22:04:37.645Z,3.29
2019-01-21T22:07:03.849Z,3.26
2019-01-21T22:09:29.733Z,3.27
2019-01-21T22:11:55.632Z,3.13
2019-01-21T22:14:21.527Z,3.30
2019-01-21T22:16:47.441Z,3.37
2019-01-21T22:19:13.362Z,3.22
2019-01-21T22:21:39.280Z,3.06
2019-01-21T22:24:05.648Z,3.21
2019-01-21T22:26:31.547Z,3.29
2019-01-21T22:28:57.452Z,3.29
2019-01-21T22:31:23.334Z,2.94
2019-01-21T22:33:49.234Z,3.22
2019-01-21T22:36:15.105Z,3.21
2019-01-21T22:38:41.062Z,3.14
2019-01-21T22:41:07.229Z,3.02
2019-01-21T22:43:37.916Z,2.92
2019-01-21T22:46:04.052Z,2.99
2019-01-21T22:48:29.930Z,3.10
2019-01-21T22:50:55.858Z,2.77
2019-01-21T22:53:21.731Z,2.74
2019-01-21T22:55:47.635Z,2.78
2019-01-21T22:58:13.537Z,2.70
2019-01-21T23:00:45.117Z,2.89
2019-01-21T23:03:11.759Z,2.91
2019-01-21T23:05:37.596Z,3.06
2019-01-21T23:08:03.610Z,2.80
2019-01-21T23:10:29.471Z,2.97
2019-01-21T23:12:55.385Z,2.93
2019-01-21T23:15:21.254Z,2.77
2019-01-21T23:17:47.192Z,2.89
2019-01-21T23:20:13.204Z,2.68
2019-01-21T23:22:39.043Z,2.52
2019-01-21T23:25:05.656Z,2.45
2019-01-21T23:27:31.529Z,2.72
2019-01-21T23:29:57.543Z,2.40
2019-01-21T23:32:23.420Z,2.77
2019-01-21T23:34:49.327Z,2.23
2019-01-21T23:37:15.184Z,2.54
2019-01-21T23:39:41.150Z,2.79
2019-01-21T23:42:07.056Z,2.69
2019-01-21T23:44:32.967Z,2.52
2019-01-21T23:46:59.154Z,2.48
2019-01-21T23:49:25.080Z,2.49
2019-01-21T23:51:50.986Z,2.55
2019-01-21T23:54:16.881Z,2.41
2019-01-21T23:56:42.797Z,2.66
2019-01-21T23:59:08.662Z,2.48
